sensor_id;sensor_type;location;lat;lon;timestamp;P1;durP1;ratioP1;P2;durP2;ratioP2
77724;SDS011;66892;53.236;6.550;2023-04-08T00:01:22;1.83;;;1.10;;
77724;SDS011;66892;53.236;6.550;2023-04-08T00:03:48;1.95;;;1.05;;
77724;SDS011;66892;53.236;6.550;2023-04-08T00:06:14;2.17;;;1.10;;
77724;SDS011;66892;53.236;6.550;2023-04-08T00:08:40;2.17;;;1.20;;
77724;SDS011;66892;53.236;6.550;2023-04-08T00:11:06;2.10;;;1.30;;
77724;SDS011;66892;53.236;6.550;2023-04-08T00:13:34;2.05;;;1.20;;
77724;SDS011;66892;53.236;6.550;2023-04-08T00:16:00;2.28;;;1.30;;
77724;SDS011;66892;53.236;6.550;2023-04-08T00:18:27;2.00;;;1.15;;
77724;SDS011;66892;53.236;6.550;2023-04-08T00:20:53;2.00;;;1.20;;
77724;SDS011;66892;53.236;6.550;2023-04-08T00:23:21;1.92;;;1.13;;
77724;SDS011;66892;53.236;6.550;2023-04-08T00:25:47;2.10;;;1.30;;
77724;SDS011;66892;53.236;6.550;2023-04-08T00:28:13;2.00;;;1.10;;
77724;SDS011;66892;53.236;6.550;2023-04-08T00:30:41;1.92;;;1.25;;
77724;SDS011;66892;53.236;6.550;2023-04-08T00:33:07;2.05;;;1.30;;
77724;SDS011;66892;53.236;6.550;2023-04-08T00:35:33;2.03;;;1.23;;
77724;SDS011;66892;53.236;6.550;2023-04-08T00:37:59;2.20;;;1.35;;
77724;SDS011;66892;53.236;6.550;2023-04-08T00:40:26;2.33;;;1.38;;
77724;SDS011;66892;53.236;6.550;2023-04-08T00:42:52;1.77;;;1.13;;
77724;SDS011;66892;53.236;6.550;2023-04-08T00:45:18;2.08;;;1.30;;
77724;SDS011;66892;53.236;6.550;2023-04-08T00:47:45;2.30;;;1.33;;
77724;SDS011;66892;53.236;6.550;2023-04-08T00:50:17;2.55;;;2.03;;
77724;SDS011;66892;53.236;6.550;2023-04-08T00:52:44;2.10;;;1.20;;
77724;SDS011;66892;53.236;6.550;2023-04-08T00:55:10;2.80;;;1.80;;
77724;SDS011;66892;53.236;6.550;2023-04-08T00:57:36;2.65;;;1.50;;
77724;SDS011;66892;53.236;6.550;2023-04-08T01:00:02;2.00;;;1.30;;
77724;SDS011;66892;53.236;6.550;2023-04-08T01:02:33;2.17;;;1.50;;
77724;SDS011;66892;53.236;6.550;2023-04-08T01:05:06;2.47;;;1.40;;
77724;SDS011;66892;53.236;6.550;2023-04-08T01:07:37;2.55;;;1.38;;
77724;SDS011;66892;53.236;6.550;2023-04-08T01:10:10;2.53;;;1.63;;
77724;SDS011;66892;53.236;6.550;2023-04-08T01:12:41;2.08;;;1.30;;
77724;SDS011;66892;53.236;6.550;2023-04-08T01:15:12;2.70;;;1.40;;
77724;SDS011;66892;53.236;6.550;2023-04-08T01:17:39;2.72;;;1.52;;
77724;SDS011;66892;53.236;6.550;2023-04-08T01:20:09;1.98;;;1.15;;
77724;SDS011;66892;53.236;6.550;2023-04-08T01:22:40;2.25;;;1.45;;
77724;SDS011;66892;53.236;6.550;2023-04-08T01:25:15;2.20;;;1.55;;
77724;SDS011;66892;53.236;6.550;2023-04-08T01:27:45;2.28;;;1.35;;
77724;SDS011;66892;53.236;6.550;2023-04-08T01:30:13;2.65;;;1.40;;
77724;SDS011;66892;53.236;6.550;2023-04-08T01:32:42;2.47;;;1.50;;
77724;SDS011;66892;53.236;6.550;2023-04-08T01:35:09;2.53;;;1.42;;
77724;SDS011;66892;53.236;6.550;2023-04-08T01:37:36;2.60;;;1.30;;
77724;SDS011;66892;53.236;6.550;2023-04-08T01:40:03;2.05;;;1.17;;
77724;SDS011;66892;53.236;6.550;2023-04-08T01:42:32;2.50;;;1.50;;
77724;SDS011;66892;53.236;6.550;2023-04-08T01:45:01;2.22;;;1.45;;
77724;SDS011;66892;53.236;6.550;2023-04-08T01:47:29;2.15;;;1.30;;
77724;SDS011;66892;53.236;6.550;2023-04-08T01:49:56;2.30;;;1.30;;
77724;SDS011;66892;53.236;6.550;2023-04-08T01:52:24;2.22;;;1.30;;
77724;SDS011;66892;53.236;6.550;2023-04-08T01:54:51;2.22;;;1.20;;
77724;SDS011;66892;53.236;6.550;2023-04-08T01:57:18;2.30;;;1.40;;
77724;SDS011;66892;53.236;6.550;2023-04-08T01:59:49;2.30;;;1.40;;
77724;SDS011;66892;53.236;6.550;2023-04-08T02:02:19;2.67;;;1.40;;
77724;SDS011;66892;53.236;6.550;2023-04-08T02:04:46;2.47;;;1.55;;
77724;SDS011;66892;53.236;6.550;2023-04-08T02:07:13;2.47;;;1.50;;
77724;SDS011;66892;53.236;6.550;2023-04-08T02:09:39;2.63;;;1.50;;
77724;SDS011;66892;53.236;6.550;2023-04-08T02:12:05;2.90;;;2.10;;
77724;SDS011;66892;53.236;6.550;2023-04-08T02:14:31;2.53;;;1.35;;
77724;SDS011;66892;53.236;6.550;2023-04-08T02:16:58;2.33;;;1.60;;
77724;SDS011;66892;53.236;6.550;2023-04-08T02:19:34;2.22;;;1.40;;
77724;SDS011;66892;53.236;6.550;2023-04-08T02:22:08;2.42;;;1.50;;
77724;SDS011;66892;53.236;6.550;2023-04-08T02:24:39;2.42;;;1.40;;
77724;SDS011;66892;53.236;6.550;2023-04-08T02:27:05;2.60;;;1.30;;
77724;SDS011;66892;53.236;6.550;2023-04-08T02:29:35;2.25;;;1.40;;
77724;SDS011;66892;53.236;6.550;2023-04-08T02:32:02;2.67;;;1.70;;
77724;SDS011;66892;53.236;6.550;2023-04-08T02:34:29;2.55;;;1.58;;
77724;SDS011;66892;53.236;6.550;2023-04-08T02:36:59;2.78;;;1.50;;
77724;SDS011;66892;53.236;6.550;2023-04-08T02:39:30;2.50;;;1.40;;
77724;SDS011;66892;53.236;6.550;2023-04-08T02:41:56;2.65;;;1.75;;
77724;SDS011;66892;53.236;6.550;2023-04-08T02:44:22;2.92;;;2.13;;
77724;SDS011;66892;53.236;6.550;2023-04-08T02:46:48;2.50;;;1.63;;
77724;SDS011;66892;53.236;6.550;2023-04-08T02:49:14;2.70;;;1.92;;
77724;SDS011;66892;53.236;6.550;2023-04-08T02:51:42;2.60;;;1.50;;
77724;SDS011;66892;53.236;6.550;2023-04-08T02:54:08;2.65;;;1.60;;
77724;SDS011;66892;53.236;6.550;2023-04-08T02:56:34;2.42;;;1.60;;
77724;SDS011;66892;53.236;6.550;2023-04-08T02:59:00;2.50;;;1.55;;
77724;SDS011;66892;53.236;6.550;2023-04-08T03:01:26;2.67;;;1.60;;
77724;SDS011;66892;53.236;6.550;2023-04-08T03:03:52;2.80;;;1.80;;
77724;SDS011;66892;53.236;6.550;2023-04-08T03:06:18;2.78;;;1.88;;
77724;SDS011;66892;53.236;6.550;2023-04-08T03:08:45;3.00;;;2.10;;
77724;SDS011;66892;53.236;6.550;2023-04-08T03:11:11;2.70;;;1.67;;
77724;SDS011;66892;53.236;6.550;2023-04-08T03:13:37;2.80;;;1.80;;
77724;SDS011;66892;53.236;6.550;2023-04-08T03:16:04;2.70;;;1.63;;
77724;SDS011;66892;53.236;6.550;2023-04-08T03:18:30;3.05;;;1.80;;
77724;SDS011;66892;53.236;6.550;2023-04-08T03:20:56;3.10;;;2.22;;
77724;SDS011;66892;53.236;6.550;2023-04-08T03:23:22;3.30;;;2.72;;
77724;SDS011;66892;53.236;6.550;2023-04-08T03:25:50;3.03;;;1.70;;
77724;SDS011;66892;53.236;6.550;2023-04-08T03:28:16;3.45;;;2.78;;
77724;SDS011;66892;53.236;6.550;2023-04-08T03:30:42;3.05;;;1.90;;
77724;SDS011;66892;53.236;6.550;2023-04-08T03:33:08;3.10;;;2.08;;
77724;SDS011;66892;53.236;6.550;2023-04-08T03:35:34;3.20;;;2.25;;
77724;SDS011;66892;53.236;6.550;2023-04-08T03:38:00;3.30;;;2.53;;
77724;SDS011;66892;53.236;6.550;2023-04-08T03:40:26;3.10;;;2.00;;
77724;SDS011;66892;53.236;6.550;2023-04-08T03:42:53;2.95;;;2.05;;
77724;SDS011;66892;53.236;6.550;2023-04-08T03:45:19;3.15;;;2.22;;
77724;SDS011;66892;53.236;6.550;2023-04-08T03:47:46;3.17;;;2.20;;
77724;SDS011;66892;53.236;6.550;2023-04-08T03:50:12;3.33;;;2.22;;
77724;SDS011;66892;53.236;6.550;2023-04-08T03:52:38;3.20;;;2.50;;
77724;SDS011;66892;53.236;6.550;2023-04-08T03:55:04;3.30;;;2.33;;
77724;SDS011;66892;53.236;6.550;2023-04-08T03:57:30;3.10;;;2.30;;
77724;SDS011;66892;53.236;6.550;2023-04-08T03:59:57;3.10;;;2.17;;
77724;SDS011;66892;53.236;6.550;2023-04-08T04:02:23;3.83;;;2.15;;
77724;SDS011;66892;53.236;6.550;2023-04-08T04:04:49;3.13;;;2.38;;
77724;SDS011;66892;53.236;6.550;2023-04-08T04:07:15;3.42;;;2.17;;
77724;SDS011;66892;53.236;6.550;2023-04-08T04:09:41;3.45;;;2.35;;
77724;SDS011;66892;53.236;6.550;2023-04-08T04:12:07;3.55;;;2.55;;
77724;SDS011;66892;53.236;6.550;2023-04-08T04:14:33;3.13;;;2.13;;
77724;SDS011;66892;53.236;6.550;2023-04-08T04:17:01;3.10;;;2.30;;
77724;SDS011;66892;53.236;6.550;2023-04-08T04:19:28;3.25;;;2.28;;
77724;SDS011;66892;53.236;6.550;2023-04-08T04:21:54;3.72;;;2.38;;
77724;SDS011;66892;53.236;6.550;2023-04-08T04:24:20;3.30;;;2.42;;
77724;SDS011;66892;53.236;6.550;2023-04-08T04:26:46;3.20;;;2.22;;
77724;SDS011;66892;53.236;6.550;2023-04-08T04:29:12;3.30;;;2.33;;
77724;SDS011;66892;53.236;6.550;2023-04-08T04:31:38;3.20;;;2.40;;
77724;SDS011;66892;53.236;6.550;2023-04-08T04:34:06;3.28;;;2.53;;
77724;SDS011;66892;53.236;6.550;2023-04-08T04:36:32;3.67;;;3.38;;
77724;SDS011;66892;53.236;6.550;2023-04-08T04:38:58;3.22;;;2.30;;
77724;SDS011;66892;53.236;6.550;2023-04-08T04:41:24;2.88;;;1.70;;
77724;SDS011;66892;53.236;6.550;2023-04-08T04:43:51;3.03;;;2.17;;
77724;SDS011;66892;53.236;6.550;2023-04-08T04:46:17;3.10;;;2.05;;
77724;SDS011;66892;53.236;6.550;2023-04-08T04:48:43;3.15;;;2.17;;
77724;SDS011;66892;53.236;6.550;2023-04-08T04:51:11;3.15;;;2.20;;
77724;SDS011;66892;53.236;6.550;2023-04-08T04:53:37;3.08;;;2.15;;
77724;SDS011;66892;53.236;6.550;2023-04-08T04:56:03;2.83;;;1.88;;
77724;SDS011;66892;53.236;6.550;2023-04-08T04:58:29;2.90;;;1.90;;
77724;SDS011;66892;53.236;6.550;2023-04-08T05:00:56;3.25;;;2.42;;
77724;SDS011;66892;53.236;6.550;2023-04-08T05:03:22;3.50;;;2.15;;
77724;SDS011;66892;53.236;6.550;2023-04-08T05:05:49;3.30;;;2.30;;
77724;SDS011;66892;53.236;6.550;2023-04-08T05:08:17;3.00;;;2.05;;
77724;SDS011;66892;53.236;6.550;2023-04-08T05:10:43;3.33;;;2.60;;
77724;SDS011;66892;53.236;6.550;2023-04-08T05:13:09;3.38;;;2.15;;
77724;SDS011;66892;53.236;6.550;2023-04-08T05:15:35;3.47;;;2.53;;
77724;SDS011;66892;53.236;6.550;2023-04-08T05:18:01;3.40;;;2.70;;
77724;SDS011;66892;53.236;6.550;2023-04-08T05:20:27;3.30;;;2.63;;
77724;SDS011;66892;53.236;6.550;2023-04-08T05:22:54;3.30;;;2.42;;
77724;SDS011;66892;53.236;6.550;2023-04-08T05:25:21;3.42;;;2.95;;
77724;SDS011;66892;53.236;6.550;2023-04-08T05:27:47;3.60;;;2.63;;
77724;SDS011;66892;53.236;6.550;2023-04-08T05:30:13;3.30;;;2.50;;
77724;SDS011;66892;53.236;6.550;2023-04-08T05:32:40;3.50;;;2.58;;
77724;SDS011;66892;53.236;6.550;2023-04-08T05:35:07;3.55;;;2.80;;
77724;SDS011;66892;53.236;6.550;2023-04-08T05:37:34;3.22;;;2.25;;
77724;SDS011;66892;53.236;6.550;2023-04-08T05:40:00;3.50;;;2.58;;
77724;SDS011;66892;53.236;6.550;2023-04-08T05:42:27;3.42;;;2.65;;
77724;SDS011;66892;53.236;6.550;2023-04-08T05:44:53;3.28;;;2.50;;
77724;SDS011;66892;53.236;6.550;2023-04-08T05:47:19;2.97;;;2.17;;
77724;SDS011;66892;53.236;6.550;2023-04-08T05:49:45;3.75;;;3.35;;
77724;SDS011;66892;53.236;6.550;2023-04-08T05:52:11;3.70;;;2.60;;
77724;SDS011;66892;53.236;6.550;2023-04-08T05:54:37;3.15;;;2.30;;
77724;SDS011;66892;53.236;6.550;2023-04-08T05:57:07;3.40;;;2.60;;
77724;SDS011;66892;53.236;6.550;2023-04-08T05:59:35;3.42;;;2.60;;
77724;SDS011;66892;53.236;6.550;2023-04-08T06:02:01;3.28;;;2.42;;
77724;SDS011;66892;53.236;6.550;2023-04-08T06:04:27;3.20;;;2.30;;
77724;SDS011;66892;53.236;6.550;2023-04-08T06:06:53;3.40;;;2.47;;
77724;SDS011;66892;53.236;6.550;2023-04-08T06:09:19;3.50;;;2.40;;
77724;SDS011;66892;53.236;6.550;2023-04-08T06:11:45;3.30;;;2.20;;
77724;SDS011;66892;53.236;6.550;2023-04-08T06:14:11;3.15;;;2.03;;
77724;SDS011;66892;53.236;6.550;2023-04-08T06:16:39;3.50;;;2.70;;
77724;SDS011;66892;53.236;6.550;2023-04-08T06:19:05;3.20;;;2.38;;
77724;SDS011;66892;53.236;6.550;2023-04-08T06:21:31;3.10;;;2.28;;
77724;SDS011;66892;53.236;6.550;2023-04-08T06:23:57;3.35;;;2.40;;
77724;SDS011;66892;53.236;6.550;2023-04-08T06:26:23;3.25;;;2.20;;
77724;SDS011;66892;53.236;6.550;2023-04-08T06:28:49;3.25;;;2.20;;
77724;SDS011;66892;53.236;6.550;2023-04-08T06:31:15;2.80;;;2.05;;
77724;SDS011;66892;53.236;6.550;2023-04-08T06:33:42;2.92;;;1.90;;
77724;SDS011;66892;53.236;6.550;2023-04-08T06:36:08;3.10;;;2.05;;
77724;SDS011;66892;53.236;6.550;2023-04-08T06:38:34;3.25;;;2.38;;
77724;SDS011;66892;53.236;6.550;2023-04-08T06:41:01;3.00;;;1.95;;
77724;SDS011;66892;53.236;6.550;2023-04-08T06:43:27;2.88;;;2.00;;
77724;SDS011;66892;53.236;6.550;2023-04-08T06:45:54;3.22;;;2.28;;
77724;SDS011;66892;53.236;6.550;2023-04-08T06:48:20;2.80;;;1.90;;
77724;SDS011;66892;53.236;6.550;2023-04-08T06:50:49;2.80;;;1.85;;
77724;SDS011;66892;53.236;6.550;2023-04-08T06:53:15;2.90;;;2.00;;
77724;SDS011;66892;53.236;6.550;2023-04-08T06:55:41;2.83;;;1.95;;
77724;SDS011;66892;53.236;6.550;2023-04-08T06:58:07;2.60;;;1.50;;
77724;SDS011;66892;53.236;6.550;2023-04-08T07:00:33;2.75;;;1.60;;
77724;SDS011;66892;53.236;6.550;2023-04-08T07:02:59;2.40;;;1.52;;
77724;SDS011;66892;53.236;6.550;2023-04-08T07:05:25;2.50;;;1.55;;
77724;SDS011;66892;53.236;6.550;2023-04-08T07:07:52;2.47;;;1.55;;
77724;SDS011;66892;53.236;6.550;2023-04-08T07:10:19;2.58;;;1.70;;
77724;SDS011;66892;53.236;6.550;2023-04-08T07:12:45;2.75;;;1.60;;
77724;SDS011;66892;53.236;6.550;2023-04-08T07:15:11;2.60;;;1.60;;
77724;SDS011;66892;53.236;6.550;2023-04-08T07:17:37;2.80;;;2.03;;
77724;SDS011;66892;53.236;6.550;2023-04-08T07:20:04;2.50;;;1.50;;
77724;SDS011;66892;53.236;6.550;2023-04-08T07:22:31;2.70;;;1.60;;
77724;SDS011;66892;53.236;6.550;2023-04-08T07:24:58;2.70;;;1.73;;
77724;SDS011;66892;53.236;6.550;2023-04-08T07:27:24;2.08;;;1.40;;
77724;SDS011;66892;53.236;6.550;2023-04-08T07:29:51;2.20;;;1.33;;
77724;SDS011;66892;53.236;6.550;2023-04-08T07:32:18;2.50;;;1.55;;
77724;SDS011;66892;53.236;6.550;2023-04-08T07:34:44;2.53;;;1.50;;
77724;SDS011;66892;53.236;6.550;2023-04-08T07:37:10;2.65;;;1.67;;
77724;SDS011;66892;53.236;6.550;2023-04-08T07:39:36;2.60;;;1.60;;
77724;SDS011;66892;53.236;6.550;2023-04-08T07:42:04;2.50;;;1.60;;
77724;SDS011;66892;53.236;6.550;2023-04-08T07:44:30;3.00;;;1.77;;
77724;SDS011;66892;53.236;6.550;2023-04-08T07:46:56;2.65;;;1.60;;
77724;SDS011;66892;53.236;6.550;2023-04-08T07:49:22;2.80;;;1.90;;
77724;SDS011;66892;53.236;6.550;2023-04-08T07:51:48;2.92;;;1.80;;
77724;SDS011;66892;53.236;6.550;2023-04-08T07:54:14;2.25;;;1.45;;
77724;SDS011;66892;53.236;6.550;2023-04-08T07:56:41;2.78;;;1.70;;
77724;SDS011;66892;53.236;6.550;2023-04-08T07:59:10;2.70;;;1.70;;
77724;SDS011;66892;53.236;6.550;2023-04-08T08:01:36;2.17;;;1.48;;
77724;SDS011;66892;53.236;6.550;2023-04-08T08:04:02;2.53;;;1.65;;
77724;SDS011;66892;53.236;6.550;2023-04-08T08:06:28;2.65;;;1.60;;
77724;SDS011;66892;53.236;6.550;2023-04-08T08:08:56;2.60;;;1.77;;
77724;SDS011;66892;53.236;6.550;2023-04-08T08:11:23;2.38;;;1.50;;
77724;SDS011;66892;53.236;6.550;2023-04-08T08:13:49;2.72;;;1.50;;
77724;SDS011;66892;53.236;6.550;2023-04-08T08:16:16;2.70;;;1.63;;
77724;SDS011;66892;53.236;6.550;2023-04-08T08:18:42;3.00;;;2.00;;
77724;SDS011;66892;53.236;6.550;2023-04-08T08:21:08;2.90;;;1.70;;
77724;SDS011;66892;53.236;6.550;2023-04-08T08:23:35;2.60;;;1.65;;
77724;SDS011;66892;53.236;6.550;2023-04-08T08:26:03;2.58;;;1.60;;
77724;SDS011;66892;53.236;6.550;2023-04-08T08:28:31;2.67;;;1.50;;
77724;SDS011;66892;53.236;6.550;2023-04-08T08:30:57;2.58;;;2.20;;
77724;SDS011;66892;53.236;6.550;2023-04-08T08:33:25;2.40;;;1.40;;
77724;SDS011;66892;53.236;6.550;2023-04-08T08:35:51;2.70;;;1.67;;
77724;SDS011;66892;53.236;6.550;2023-04-08T08:38:17;2.53;;;1.50;;
77724;SDS011;66892;53.236;6.550;2023-04-08T08:40:43;2.40;;;1.42;;
77724;SDS011;66892;53.236;6.550;2023-04-08T08:43:10;2.65;;;1.60;;
77724;SDS011;66892;53.236;6.550;2023-04-08T08:45:37;2.80;;;1.67;;
77724;SDS011;66892;53.236;6.550;2023-04-08T08:48:04;2.47;;;1.52;;
77724;SDS011;66892;53.236;6.550;2023-04-08T08:50:32;2.35;;;1.48;;
77724;SDS011;66892;53.236;6.550;2023-04-08T08:52:58;2.70;;;1.80;;
77724;SDS011;66892;53.236;6.550;2023-04-08T08:55:24;2.85;;;1.75;;
77724;SDS011;66892;53.236;6.550;2023-04-08T08:57:50;3.10;;;1.83;;
77724;SDS011;66892;53.236;6.550;2023-04-08T09:00:16;2.78;;;1.77;;
77724;SDS011;66892;53.236;6.550;2023-04-08T09:02:43;2.55;;;1.70;;
77724;SDS011;66892;53.236;6.550;2023-04-08T09:05:09;2.40;;;1.40;;
77724;SDS011;66892;53.236;6.550;2023-04-08T09:07:37;2.42;;;1.42;;
77724;SDS011;66892;53.236;6.550;2023-04-08T09:10:06;2.60;;;1.70;;
77724;SDS011;66892;53.236;6.550;2023-04-08T09:12:33;2.45;;;1.50;;
77724;SDS011;66892;53.236;6.550;2023-04-08T09:15:03;2.40;;;1.40;;
77724;SDS011;66892;53.236;6.550;2023-04-08T09:17:31;2.30;;;1.30;;
77724;SDS011;66892;53.236;6.550;2023-04-08T09:20:04;2.33;;;1.42;;
77724;SDS011;66892;53.236;6.550;2023-04-08T09:22:56;2.30;;;1.40;;
77724;SDS011;66892;53.236;6.550;2023-04-08T09:25:24;2.45;;;1.30;;
77724;SDS011;66892;53.236;6.550;2023-04-08T09:27:51;2.10;;;1.30;;
77724;SDS011;66892;53.236;6.550;2023-04-08T09:30:19;2.70;;;1.55;;
77724;SDS011;66892;53.236;6.550;2023-04-08T09:32:46;2.40;;;1.40;;
77724;SDS011;66892;53.236;6.550;2023-04-08T09:35:13;2.80;;;1.65;;
77724;SDS011;66892;53.236;6.550;2023-04-08T09:37:41;2.90;;;1.55;;
77724;SDS011;66892;53.236;6.550;2023-04-08T09:40:09;3.15;;;2.30;;
77724;SDS011;66892;53.236;6.550;2023-04-08T09:42:37;2.70;;;1.52;;
77724;SDS011;66892;53.236;6.550;2023-04-08T09:45:05;2.95;;;1.88;;
77724;SDS011;66892;53.236;6.550;2023-04-08T09:47:33;2.92;;;1.92;;
77724;SDS011;66892;53.236;6.550;2023-04-08T09:50:07;2.72;;;1.60;;
77724;SDS011;66892;53.236;6.550;2023-04-08T09:52:36;2.80;;;1.60;;
77724;SDS011;66892;53.236;6.550;2023-04-08T09:55:10;2.60;;;1.60;;
77724;SDS011;66892;53.236;6.550;2023-04-08T09:57:39;2.50;;;1.30;;
77724;SDS011;66892;53.236;6.550;2023-04-08T10:00:07;2.45;;;1.50;;
77724;SDS011;66892;53.236;6.550;2023-04-08T10:02:40;2.22;;;1.38;;
77724;SDS011;66892;53.236;6.550;2023-04-08T10:05:13;2.67;;;1.80;;
77724;SDS011;66892;53.236;6.550;2023-04-08T10:07:41;2.55;;;1.50;;
77724;SDS011;66892;53.236;6.550;2023-04-08T10:10:09;2.40;;;1.55;;
77724;SDS011;66892;53.236;6.550;2023-04-08T10:12:36;2.45;;;1.55;;
77724;SDS011;66892;53.236;6.550;2023-04-08T10:15:22;2.90;;;1.60;;
77724;SDS011;66892;53.236;6.550;2023-04-08T10:17:52;3.30;;;1.58;;
77724;SDS011;66892;53.236;6.550;2023-04-08T10:23:06;2.90;;;1.77;;
77724;SDS011;66892;53.236;6.550;2023-04-08T10:25:34;2.65;;;1.45;;
77724;SDS011;66892;53.236;6.550;2023-04-08T10:30:50;3.38;;;1.75;;
77724;SDS011;66892;53.236;6.550;2023-04-08T10:33:17;2.72;;;1.73;;
77724;SDS011;66892;53.236;6.550;2023-04-08T10:35:46;2.70;;;1.67;;
77724;SDS011;66892;53.236;6.550;2023-04-08T10:38:13;3.10;;;1.70;;
77724;SDS011;66892;53.236;6.550;2023-04-08T10:40:41;2.72;;;1.70;;
77724;SDS011;66892;53.236;6.550;2023-04-08T10:43:08;2.95;;;1.80;;
77724;SDS011;66892;53.236;6.550;2023-04-08T10:45:35;3.20;;;1.83;;
77724;SDS011;66892;53.236;6.550;2023-04-08T10:48:14;2.80;;;2.00;;
77724;SDS011;66892;53.236;6.550;2023-04-08T10:50:42;3.00;;;2.10;;
77724;SDS011;66892;53.236;6.550;2023-04-08T10:53:09;2.90;;;1.80;;
77724;SDS011;66892;53.236;6.550;2023-04-08T10:55:35;2.90;;;1.80;;
77724;SDS011;66892;53.236;6.550;2023-04-08T10:58:07;3.38;;;2.13;;
77724;SDS011;66892;53.236;6.550;2023-04-08T11:00:35;3.72;;;2.38;;
77724;SDS011;66892;53.236;6.550;2023-04-08T11:03:02;3.13;;;1.92;;
77724;SDS011;66892;53.236;6.550;2023-04-08T11:05:28;3.28;;;2.22;;
77724;SDS011;66892;53.236;6.550;2023-04-08T11:07:54;3.15;;;2.22;;
77724;SDS011;66892;53.236;6.550;2023-04-08T11:10:20;3.55;;;2.13;;
77724;SDS011;66892;53.236;6.550;2023-04-08T11:12:46;4.00;;;3.17;;
77724;SDS011;66892;53.236;6.550;2023-04-08T11:15:15;3.30;;;2.50;;
77724;SDS011;66892;53.236;6.550;2023-04-08T11:17:42;3.30;;;2.22;;
77724;SDS011;66892;53.236;6.550;2023-04-08T11:20:08;3.53;;;2.10;;
77724;SDS011;66892;53.236;6.550;2023-04-08T11:22:35;3.25;;;2.10;;
77724;SDS011;66892;53.236;6.550;2023-04-08T11:25:01;3.35;;;2.10;;
77724;SDS011;66892;53.236;6.550;2023-04-08T11:27:28;3.30;;;2.58;;
77724;SDS011;66892;53.236;6.550;2023-04-08T11:29:54;3.40;;;2.30;;
77724;SDS011;66892;53.236;6.550;2023-04-08T11:32:23;3.75;;;2.30;;
77724;SDS011;66892;53.236;6.550;2023-04-08T11:34:49;3.40;;;1.95;;
77724;SDS011;66892;53.236;6.550;2023-04-08T11:37:15;3.10;;;2.08;;
77724;SDS011;66892;53.236;6.550;2023-04-08T11:39:42;3.50;;;2.67;;
77724;SDS011;66892;53.236;6.550;2023-04-08T11:42:08;3.67;;;2.67;;
77724;SDS011;66892;53.236;6.550;2023-04-08T11:44:50;3.33;;;2.10;;
77724;SDS011;66892;53.236;6.550;2023-04-08T11:47:16;3.17;;;2.08;;
77724;SDS011;66892;53.236;6.550;2023-04-08T11:49:44;3.35;;;2.03;;
77724;SDS011;66892;53.236;6.550;2023-04-08T11:52:11;2.90;;;1.92;;
77724;SDS011;66892;53.236;6.550;2023-04-08T11:54:39;3.00;;;1.90;;
77724;SDS011;66892;53.236;6.550;2023-04-08T11:57:06;3.80;;;2.00;;
77724;SDS011;66892;53.236;6.550;2023-04-08T11:59:34;3.10;;;2.20;;
77724;SDS011;66892;53.236;6.550;2023-04-08T12:02:00;3.38;;;2.20;;
77724;SDS011;66892;53.236;6.550;2023-04-08T12:04:27;3.00;;;1.98;;
77724;SDS011;66892;53.236;6.550;2023-04-08T12:06:54;3.10;;;2.20;;
77724;SDS011;66892;53.236;6.550;2023-04-08T12:09:20;3.13;;;2.15;;
77724;SDS011;66892;53.236;6.550;2023-04-08T12:11:46;3.35;;;2.10;;
77724;SDS011;66892;53.236;6.550;2023-04-08T12:14:13;3.13;;;2.03;;
77724;SDS011;66892;53.236;6.550;2023-04-08T12:16:39;3.75;;;2.30;;
77724;SDS011;66892;53.236;6.550;2023-04-08T12:19:05;3.15;;;2.10;;
77724;SDS011;66892;53.236;6.550;2023-04-08T12:21:31;3.17;;;2.30;;
77724;SDS011;66892;53.236;6.550;2023-04-08T12:24:00;3.10;;;2.03;;
77724;SDS011;66892;53.236;6.550;2023-04-08T12:26:26;3.30;;;2.10;;
77724;SDS011;66892;53.236;6.550;2023-04-08T12:28:52;3.50;;;2.28;;
77724;SDS011;66892;53.236;6.550;2023-04-08T12:31:18;3.00;;;2.05;;
77724;SDS011;66892;53.236;6.550;2023-04-08T12:33:44;3.22;;;2.20;;
77724;SDS011;66892;53.236;6.550;2023-04-08T12:36:10;2.90;;;1.95;;
77724;SDS011;66892;53.236;6.550;2023-04-08T12:38:36;2.80;;;1.80;;
77724;SDS011;66892;53.236;6.550;2023-04-08T12:41:04;3.13;;;2.03;;
77724;SDS011;66892;53.236;6.550;2023-04-08T12:43:30;3.03;;;2.25;;
77724;SDS011;66892;53.236;6.550;2023-04-08T12:45:57;2.90;;;1.70;;
77724;SDS011;66892;53.236;6.550;2023-04-08T12:48:23;2.70;;;1.70;;
77724;SDS011;66892;53.236;6.550;2023-04-08T12:50:49;2.83;;;1.73;;
77724;SDS011;66892;53.236;6.550;2023-04-08T12:53:16;2.80;;;1.52;;
77724;SDS011;66892;53.236;6.550;2023-04-08T12:55:42;3.58;;;1.60;;
77724;SDS011;66892;53.236;6.550;2023-04-08T12:58:09;2.28;;;1.42;;
77724;SDS011;66892;53.236;6.550;2023-04-08T13:00:35;2.65;;;1.48;;
77724;SDS011;66892;53.236;6.550;2023-04-08T13:03:04;3.17;;;1.60;;
77724;SDS011;66892;53.236;6.550;2023-04-08T13:05:30;2.50;;;1.40;;
77724;SDS011;66892;53.236;6.550;2023-04-08T13:07:57;2.10;;;1.23;;
77724;SDS011;66892;53.236;6.550;2023-04-08T13:10:23;3.20;;;1.58;;
77724;SDS011;66892;53.236;6.550;2023-04-08T13:12:49;2.35;;;1.50;;
77724;SDS011;66892;53.236;6.550;2023-04-08T13:15:16;2.72;;;1.45;;
77724;SDS011;66892;53.236;6.550;2023-04-08T13:17:42;2.70;;;1.70;;
77724;SDS011;66892;53.236;6.550;2023-04-08T13:20:08;2.70;;;1.70;;
77724;SDS011;66892;53.236;6.550;2023-04-08T13:22:35;2.80;;;1.77;;
77724;SDS011;66892;53.236;6.550;2023-04-08T13:25:01;2.75;;;1.55;;
77724;SDS011;66892;53.236;6.550;2023-04-08T13:27:27;2.53;;;1.55;;
77724;SDS011;66892;53.236;6.550;2023-04-08T13:29:53;2.30;;;1.30;;
77724;SDS011;66892;53.236;6.550;2023-04-08T13:32:21;2.78;;;1.80;;
77724;SDS011;66892;53.236;6.550;2023-04-08T13:34:47;2.40;;;1.30;;
77724;SDS011;66892;53.236;6.550;2023-04-08T13:37:13;2.70;;;1.50;;
77724;SDS011;66892;53.236;6.550;2023-04-08T13:39:39;2.47;;;1.38;;
77724;SDS011;66892;53.236;6.550;2023-04-08T13:42:05;2.80;;;1.73;;
77724;SDS011;66892;53.236;6.550;2023-04-08T13:44:31;2.67;;;1.73;;
77724;SDS011;66892;53.236;6.550;2023-04-08T13:46:57;2.85;;;1.50;;
77724;SDS011;66892;53.236;6.550;2023-04-08T13:49:25;2.75;;;1.58;;
77724;SDS011;66892;53.236;6.550;2023-04-08T13:51:52;3.20;;;1.55;;
77724;SDS011;66892;53.236;6.550;2023-04-08T13:54:18;2.50;;;1.50;;
77724;SDS011;66892;53.236;6.550;2023-04-08T13:56:44;2.63;;;1.48;;
77724;SDS011;66892;53.236;6.550;2023-04-08T13:59:10;2.63;;;1.40;;
77724;SDS011;66892;53.236;6.550;2023-04-08T14:01:36;2.40;;;1.52;;
77724;SDS011;66892;53.236;6.550;2023-04-08T14:04:02;2.70;;;1.52;;
77724;SDS011;66892;53.236;6.550;2023-04-08T14:06:30;2.78;;;1.50;;
77724;SDS011;66892;53.236;6.550;2023-04-08T14:08:56;2.85;;;1.67;;
77724;SDS011;66892;53.236;6.550;2023-04-08T14:11:22;2.83;;;1.83;;
77724;SDS011;66892;53.236;6.550;2023-04-08T14:13:49;3.15;;;1.73;;
77724;SDS011;66892;53.236;6.550;2023-04-08T14:16:15;2.60;;;1.67;;
77724;SDS011;66892;53.236;6.550;2023-04-08T14:18:41;2.65;;;1.52;;
77724;SDS011;66892;53.236;6.550;2023-04-08T14:21:07;2.50;;;1.40;;
77724;SDS011;66892;53.236;6.550;2023-04-08T14:23:34;2.80;;;1.92;;
77724;SDS011;66892;53.236;6.550;2023-04-08T14:26:00;2.67;;;1.70;;
77724;SDS011;66892;53.236;6.550;2023-04-08T14:28:26;2.53;;;1.42;;
77724;SDS011;66892;53.236;6.550;2023-04-08T14:30:52;2.58;;;1.63;;
77724;SDS011;66892;53.236;6.550;2023-04-08T14:33:18;2.40;;;1.40;;
77724;SDS011;66892;53.236;6.550;2023-04-08T14:35:44;2.55;;;1.70;;
77724;SDS011;66892;53.236;6.550;2023-04-08T14:38:11;3.05;;;1.70;;
77724;SDS011;66892;53.236;6.550;2023-04-08T14:40:38;2.90;;;1.80;;
77724;SDS011;66892;53.236;6.550;2023-04-08T14:43:04;2.53;;;1.48;;
77724;SDS011;66892;53.236;6.550;2023-04-08T14:45:30;2.88;;;1.80;;
77724;SDS011;66892;53.236;6.550;2023-04-08T14:47:57;2.58;;;1.63;;
77724;SDS011;66892;53.236;6.550;2023-04-08T14:50:23;2.40;;;1.55;;
77724;SDS011;66892;53.236;6.550;2023-04-08T14:52:49;3.15;;;1.58;;